Weather at Jacksonville International Airport

Public forecast

Using degrees Fahrenheit for public forecast. Weather courtesy of forecast.io.

Current aviation weather report (METAR) for Jacksonville International Airport

Retrieved 2020/10/27 22:56 UTC (7 minutes ago):

KJAX 272256Z 08009KT 10SM FEW032 BKN050 BKN090 BKN250 24/22 A3007 RMK AO2 RAE00 SLP184 P0000 T02440222

Aviation forecast (TAF) for Jacksonville International Airport

Retrieved 2020/10/27 18:27 UTC (5 hours ago):

TAF KJAX 271724Z 2718/2818 08010KT P6SM VCSH SCT025 OVC050 TEMPO 2718/2720 5SM -SHRA BKN025 FM280200 07004KT P6SM BKN050 OVC100 FM281500 10010KT P6SM BKN050